الصفحة الرئيسية
METAR-TAF:

METAR-TAF

مطار :

Bluefields, نيكاراغوا

دائرة عرض: 12-00N, خط طول: 083-46W, ارتفاع: 5 متر

مراقبة الطقس الحالي

تاريخ ووقت الإصدار 39 دقيقة قبل الساعة 13:00UTC
رياح هادئة
درجة الحرارة 25°درجة مئوية
الرطوبة 89%
ضغط 1013 hPa
الرؤية: 5000 متر
غيوم مفككة على ارتفاع 1600 قدم
غيوم متفرقة على ارتفاع 7000 قدم
رذاذ خفيف

METAR: MNBL 111300Z 00000KT 5000 -DZ BKN016 SCT070 25/23 Q1013

زمن: 07:39 (13:39 UTC)

توقعات

تاريخ ووقت الإصدار 17ساعات و 24 دقيقة قبل الساعة 20:15UTC
التوقعات صالحة من11 الساعة 00 UTC إلى 11 الساعة 24 UTC
ريح 4 عقدة من الشمال الشرقي
الرؤية 10 كم أو أكثر
غيوم متفرقة على ارتفاع 1700 قدم
غيوم متفرقة على ارتفاع 7000 قدم
من 11 الساعة 0200 UTC
ريح 10 عقدة من الشرق/الجنوب الشرقي
غيوم متفرقة على ارتفاع 2000 قدم
غيوم متفرقة على ارتفاع 8000 قدم

TAF: MNBL 102015Z 1100/1124 04004KT 9999 SCT017 SCT070 FM110200 11010KT SCT020 SCT080

أرصاد الطقس والتوقعات من أكثر من 4000 مطار (تقارير الطقس للمطار METAR والتنبؤ بالطقس بالمطارTAF).

المحطات المتاحة هي النقط الصفراء والحمراء على الخريطة.

حرك المؤشر فوق النقطة لمعرفة اسم المحطة.

ثم انقر لمعرفة أرصاد وتوقعات الطقس.

لتغيير الخارطة: اضغط على الأزرار الخضراء مع رمز الصليب الأسود للتكبير. على الزر الأخضر مع شرطة للتصغير، أو على الأسهم الخضراء للخرائط المجاورة.


METAR-TAF: